sensor_id;sensor_type;location;lat;lon;timestamp;P1;durP1;ratioP1;P2;durP2;ratioP2
5612;SDS011;2828;53.582;9.956;2022-07-23T00:00:12;6.43;;;2.47;;
5612;SDS011;2828;53.582;9.956;2022-07-23T00:02:38;5.63;;;2.57;;
5612;SDS011;2828;53.582;9.956;2022-07-23T00:05:04;2.30;;;2.10;;
5612;SDS011;2828;53.582;9.956;2022-07-23T00:07:30;2.20;;;2.00;;
5612;SDS011;2828;53.582;9.956;2022-07-23T00:09:56;2.47;;;2.20;;
5612;SDS011;2828;53.582;9.956;2022-07-23T00:12:22;2.30;;;1.97;;
5612;SDS011;2828;53.582;9.956;2022-07-23T00:14:48;5.03;;;1.80;;
5612;SDS011;2828;53.582;9.956;2022-07-23T00:17:14;2.83;;;2.20;;
5612;SDS011;2828;53.582;9.956;2022-07-23T00:19:40;2.37;;;2.23;;
5612;SDS011;2828;53.582;9.956;2022-07-23T00:22:06;7.17;;;2.30;;
5612;SDS011;2828;53.582;9.956;2022-07-23T00:24:33;3.90;;;2.10;;
5612;SDS011;2828;53.582;9.956;2022-07-23T00:26:59;10.07;;;2.40;;
5612;SDS011;2828;53.582;9.956;2022-07-23T00:29:25;2.83;;;2.20;;
5612;SDS011;2828;53.582;9.956;2022-07-23T00:31:50;7.43;;;2.50;;
5612;SDS011;2828;53.582;9.956;2022-07-23T00:34:16;4.90;;;2.33;;
5612;SDS011;2828;53.582;9.956;2022-07-23T00:36:42;6.00;;;2.10;;
5612;SDS011;2828;53.582;9.956;2022-07-23T00:39:08;2.20;;;2.00;;
5612;SDS011;2828;53.582;9.956;2022-07-23T00:41:34;3.47;;;1.90;;
5612;SDS011;2828;53.582;9.956;2022-07-23T00:44:16;5.23;;;2.00;;
5612;SDS011;2828;53.582;9.956;2022-07-23T00:46:47;2.10;;;2.00;;
5612;SDS011;2828;53.582;9.956;2022-07-23T00:49:13;2.50;;;1.87;;
5612;SDS011;2828;53.582;9.956;2022-07-23T00:51:39;4.40;;;2.20;;
5612;SDS011;2828;53.582;9.956;2022-07-23T00:54:05;2.67;;;2.40;;
5612;SDS011;2828;53.582;9.956;2022-07-23T00:56:32;1.87;;;1.77;;
5612;SDS011;2828;53.582;9.956;2022-07-23T00:58:59;2.20;;;2.10;;
5612;SDS011;2828;53.582;9.956;2022-07-23T01:01:26;3.17;;;2.40;;
5612;SDS011;2828;53.582;9.956;2022-07-23T01:03:52;2.20;;;2.00;;
5612;SDS011;2828;53.582;9.956;2022-07-23T01:06:18;2.73;;;2.10;;
5612;SDS011;2828;53.582;9.956;2022-07-23T01:08:44;2.37;;;2.17;;
5612;SDS011;2828;53.582;9.956;2022-07-23T01:11:10;2.20;;;2.10;;
5612;SDS011;2828;53.582;9.956;2022-07-23T01:13:40;6.10;;;2.43;;
5612;SDS011;2828;53.582;9.956;2022-07-23T01:16:06;3.47;;;2.23;;
5612;SDS011;2828;53.582;9.956;2022-07-23T01:18:32;2.50;;;2.40;;
5612;SDS011;2828;53.582;9.956;2022-07-23T01:20:58;4.00;;;2.50;;
5612;SDS011;2828;53.582;9.956;2022-07-23T01:23:24;3.47;;;2.10;;
5612;SDS011;2828;53.582;9.956;2022-07-23T01:25:54;11.70;;;2.50;;
5612;SDS011;2828;53.582;9.956;2022-07-23T01:28:20;1.97;;;1.87;;
5612;SDS011;2828;53.582;9.956;2022-07-23T01:30:47;3.97;;;2.93;;
5612;SDS011;2828;53.582;9.956;2022-07-23T01:33:13;3.63;;;2.37;;
5612;SDS011;2828;53.582;9.956;2022-07-23T01:35:39;2.00;;;1.90;;
5612;SDS011;2828;53.582;9.956;2022-07-23T01:38:05;2.90;;;2.70;;
5612;SDS011;2828;53.582;9.956;2022-07-23T01:40:31;2.43;;;2.20;;
5612;SDS011;2828;53.582;9.956;2022-07-23T01:42:57;4.50;;;2.23;;
5612;SDS011;2828;53.582;9.956;2022-07-23T01:45:23;2.20;;;2.10;;
5612;SDS011;2828;53.582;9.956;2022-07-23T01:47:49;8.40;;;2.40;;
5612;SDS011;2828;53.582;9.956;2022-07-23T01:50:15;3.73;;;2.20;;
5612;SDS011;2828;53.582;9.956;2022-07-23T01:52:41;3.03;;;2.30;;
5612;SDS011;2828;53.582;9.956;2022-07-23T01:55:07;5.40;;;2.40;;
5612;SDS011;2828;53.582;9.956;2022-07-23T01:57:33;10.43;;;2.20;;
5612;SDS011;2828;53.582;9.956;2022-07-23T01:59:59;6.77;;;2.57;;
5612;SDS011;2828;53.582;9.956;2022-07-23T02:02:25;5.40;;;2.47;;
5612;SDS011;2828;53.582;9.956;2022-07-23T02:04:51;4.60;;;2.40;;
5612;SDS011;2828;53.582;9.956;2022-07-23T02:07:17;2.37;;;2.20;;
5612;SDS011;2828;53.582;9.956;2022-07-23T02:09:43;8.80;;;2.30;;
5612;SDS011;2828;53.582;9.956;2022-07-23T02:12:09;8.60;;;2.13;;
5612;SDS011;2828;53.582;9.956;2022-07-23T02:14:35;4.50;;;2.67;;
5612;SDS011;2828;53.582;9.956;2022-07-23T02:17:00;6.00;;;2.20;;
5612;SDS011;2828;53.582;9.956;2022-07-23T02:19:26;2.23;;;2.13;;
5612;SDS011;2828;53.582;9.956;2022-07-23T02:21:52;3.10;;;2.13;;
5612;SDS011;2828;53.582;9.956;2022-07-23T02:24:19;2.40;;;2.20;;
5612;SDS011;2828;53.582;9.956;2022-07-23T02:26:45;2.80;;;2.60;;
5612;SDS011;2828;53.582;9.956;2022-07-23T02:29:11;2.50;;;2.40;;
5612;SDS011;2828;53.582;9.956;2022-07-23T02:31:37;3.90;;;2.20;;
5612;SDS011;2828;53.582;9.956;2022-07-23T02:34:03;2.47;;;2.27;;
5612;SDS011;2828;53.582;9.956;2022-07-23T02:36:29;2.30;;;2.10;;
5612;SDS011;2828;53.582;9.956;2022-07-23T02:38:55;2.40;;;2.30;;
5612;SDS011;2828;53.582;9.956;2022-07-23T02:41:22;7.80;;;2.70;;
5612;SDS011;2828;53.582;9.956;2022-07-23T02:43:47;3.13;;;2.40;;
5612;SDS011;2828;53.582;9.956;2022-07-23T02:46:13;4.30;;;2.30;;
5612;SDS011;2828;53.582;9.956;2022-07-23T02:48:39;3.07;;;2.10;;
5612;SDS011;2828;53.582;9.956;2022-07-23T02:51:05;4.27;;;2.47;;
5612;SDS011;2828;53.582;9.956;2022-07-23T02:53:31;5.20;;;2.23;;
5612;SDS011;2828;53.582;9.956;2022-07-23T02:55:57;4.60;;;2.30;;
5612;SDS011;2828;53.582;9.956;2022-07-23T02:58:23;2.10;;;2.00;;
5612;SDS011;2828;53.582;9.956;2022-07-23T03:00:51;2.83;;;2.50;;
5612;SDS011;2828;53.582;9.956;2022-07-23T03:03:17;3.53;;;2.50;;
5612;SDS011;2828;53.582;9.956;2022-07-23T03:05:43;4.07;;;2.83;;
5612;SDS011;2828;53.582;9.956;2022-07-23T03:08:09;2.37;;;2.27;;
5612;SDS011;2828;53.582;9.956;2022-07-23T03:10:35;2.70;;;2.60;;
5612;SDS011;2828;53.582;9.956;2022-07-23T03:13:01;5.30;;;2.60;;
5612;SDS011;2828;53.582;9.956;2022-07-23T03:15:27;2.53;;;2.33;;
5612;SDS011;2828;53.582;9.956;2022-07-23T03:17:53;3.93;;;2.70;;
5612;SDS011;2828;53.582;9.956;2022-07-23T03:20:19;3.80;;;2.30;;
5612;SDS011;2828;53.582;9.956;2022-07-23T03:22:45;3.23;;;2.47;;
5612;SDS011;2828;53.582;9.956;2022-07-23T03:25:11;4.37;;;2.70;;
5612;SDS011;2828;53.582;9.956;2022-07-23T03:27:37;2.63;;;2.50;;
5612;SDS011;2828;53.582;9.956;2022-07-23T03:30:03;6.10;;;2.70;;
5612;SDS011;2828;53.582;9.956;2022-07-23T03:32:29;3.23;;;2.40;;
5612;SDS011;2828;53.582;9.956;2022-07-23T03:34:56;13.83;;;2.60;;
5612;SDS011;2828;53.582;9.956;2022-07-23T03:37:22;3.43;;;2.70;;
5612;SDS011;2828;53.582;9.956;2022-07-23T03:39:48;4.63;;;2.50;;
5612;SDS011;2828;53.582;9.956;2022-07-23T03:42:14;4.87;;;2.90;;
5612;SDS011;2828;53.582;9.956;2022-07-23T03:44:40;9.80;;;2.23;;
5612;SDS011;2828;53.582;9.956;2022-07-23T03:47:06;10.37;;;3.13;;
5612;SDS011;2828;53.582;9.956;2022-07-23T03:49:32;2.90;;;2.80;;
5612;SDS011;2828;53.582;9.956;2022-07-23T03:51:58;2.37;;;2.27;;
5612;SDS011;2828;53.582;9.956;2022-07-23T03:54:24;2.50;;;2.30;;
5612;SDS011;2828;53.582;9.956;2022-07-23T03:56:50;3.23;;;2.90;;
5612;SDS011;2828;53.582;9.956;2022-07-23T03:59:16;2.53;;;2.33;;
5612;SDS011;2828;53.582;9.956;2022-07-23T04:01:42;5.33;;;2.70;;
5612;SDS011;2828;53.582;9.956;2022-07-23T04:04:08;2.77;;;2.50;;
5612;SDS011;2828;53.582;9.956;2022-07-23T04:06:35;8.70;;;2.70;;
5612;SDS011;2828;53.582;9.956;2022-07-23T04:09:00;2.40;;;2.17;;
5612;SDS011;2828;53.582;9.956;2022-07-23T04:11:26;4.87;;;3.23;;
5612;SDS011;2828;53.582;9.956;2022-07-23T04:13:52;4.10;;;2.60;;
5612;SDS011;2828;53.582;9.956;2022-07-23T04:16:18;7.40;;;2.80;;
5612;SDS011;2828;53.582;9.956;2022-07-23T04:18:44;6.00;;;3.37;;
5612;SDS011;2828;53.582;9.956;2022-07-23T04:21:10;3.20;;;2.90;;
5612;SDS011;2828;53.582;9.956;2022-07-23T04:23:36;3.40;;;2.63;;
5612;SDS011;2828;53.582;9.956;2022-07-23T04:26:02;4.90;;;2.80;;
5612;SDS011;2828;53.582;9.956;2022-07-23T04:28:28;3.00;;;2.80;;
5612;SDS011;2828;53.582;9.956;2022-07-23T04:30:57;3.10;;;2.90;;
5612;SDS011;2828;53.582;9.956;2022-07-23T04:33:24;8.50;;;2.90;;
5612;SDS011;2828;53.582;9.956;2022-07-23T04:35:50;3.17;;;2.57;;
5612;SDS011;2828;53.582;9.956;2022-07-23T04:38:16;4.47;;;3.00;;
5612;SDS011;2828;53.582;9.956;2022-07-23T04:40:42;2.80;;;2.60;;
5612;SDS011;2828;53.582;9.956;2022-07-23T04:43:08;5.20;;;3.30;;
5612;SDS011;2828;53.582;9.956;2022-07-23T04:45:34;3.20;;;3.10;;
5612;SDS011;2828;53.582;9.956;2022-07-23T04:47:59;3.80;;;3.10;;
5612;SDS011;2828;53.582;9.956;2022-07-23T04:50:26;6.03;;;3.63;;
5612;SDS011;2828;53.582;9.956;2022-07-23T04:52:52;4.57;;;3.20;;
5612;SDS011;2828;53.582;9.956;2022-07-23T04:55:18;3.13;;;2.93;;
5612;SDS011;2828;53.582;9.956;2022-07-23T04:57:44;5.17;;;4.60;;
5612;SDS011;2828;53.582;9.956;2022-07-23T05:00:10;2.97;;;2.77;;
5612;SDS011;2828;53.582;9.956;2022-07-23T05:02:36;2.63;;;2.50;;
5612;SDS011;2828;53.582;9.956;2022-07-23T05:05:02;6.60;;;3.10;;
5612;SDS011;2828;53.582;9.956;2022-07-23T05:07:28;3.57;;;2.67;;
5612;SDS011;2828;53.582;9.956;2022-07-23T05:09:54;3.23;;;2.90;;
5612;SDS011;2828;53.582;9.956;2022-07-23T05:12:19;5.27;;;2.50;;
5612;SDS011;2828;53.582;9.956;2022-07-23T05:14:45;3.17;;;2.47;;
5612;SDS011;2828;53.582;9.956;2022-07-23T05:17:11;4.47;;;2.87;;
5612;SDS011;2828;53.582;9.956;2022-07-23T05:19:37;5.83;;;2.70;;
5612;SDS011;2828;53.582;9.956;2022-07-23T05:22:03;3.10;;;2.30;;
5612;SDS011;2828;53.582;9.956;2022-07-23T05:24:29;2.43;;;2.23;;
5612;SDS011;2828;53.582;9.956;2022-07-23T05:26:55;2.50;;;2.30;;
5612;SDS011;2828;53.582;9.956;2022-07-23T05:29:21;2.50;;;2.40;;
5612;SDS011;2828;53.582;9.956;2022-07-23T05:31:48;2.50;;;2.40;;
5612;SDS011;2828;53.582;9.956;2022-07-23T05:34:14;2.50;;;2.30;;
5612;SDS011;2828;53.582;9.956;2022-07-23T05:36:40;4.63;;;2.30;;
5612;SDS011;2828;53.582;9.956;2022-07-23T05:39:06;3.27;;;2.30;;
5612;SDS011;2828;53.582;9.956;2022-07-23T05:41:32;3.17;;;2.10;;
5612;SDS011;2828;53.582;9.956;2022-07-23T05:43:58;2.60;;;2.40;;
5612;SDS011;2828;53.582;9.956;2022-07-23T05:46:24;2.60;;;2.50;;
5612;SDS011;2828;53.582;9.956;2022-07-23T05:48:50;2.90;;;2.30;;
5612;SDS011;2828;53.582;9.956;2022-07-23T05:51:20;2.33;;;2.13;;
5612;SDS011;2828;53.582;9.956;2022-07-23T05:53:46;3.13;;;2.80;;
5612;SDS011;2828;53.582;9.956;2022-07-23T05:56:12;2.33;;;2.23;;
5612;SDS011;2828;53.582;9.956;2022-07-23T05:58:38;19.23;;;2.60;;
5612;SDS011;2828;53.582;9.956;2022-07-23T06:01:04;3.83;;;2.30;;
5612;SDS011;2828;53.582;9.956;2022-07-23T06:03:30;2.20;;;2.10;;
5612;SDS011;2828;53.582;9.956;2022-07-23T06:05:56;5.60;;;2.10;;
5612;SDS011;2828;53.582;9.956;2022-07-23T06:08:22;2.03;;;1.90;;
5612;SDS011;2828;53.582;9.956;2022-07-23T06:10:48;2.60;;;2.40;;
5612;SDS011;2828;53.582;9.956;2022-07-23T06:13:14;2.70;;;2.50;;
5612;SDS011;2828;53.582;9.956;2022-07-23T06:15:40;2.63;;;2.17;;
5612;SDS011;2828;53.582;9.956;2022-07-23T06:18:06;2.77;;;2.53;;
5612;SDS011;2828;53.582;9.956;2022-07-23T06:20:32;2.57;;;2.37;;
5612;SDS011;2828;53.582;9.956;2022-07-23T06:22:58;2.37;;;2.27;;
5612;SDS011;2828;53.582;9.956;2022-07-23T06:25:24;3.43;;;2.20;;
5612;SDS011;2828;53.582;9.956;2022-07-23T06:27:50;2.40;;;2.20;;
5612;SDS011;2828;53.582;9.956;2022-07-23T06:30:16;2.57;;;2.37;;
5612;SDS011;2828;53.582;9.956;2022-07-23T06:32:43;7.27;;;2.80;;
5612;SDS011;2828;53.582;9.956;2022-07-23T06:35:09;2.67;;;2.57;;
5612;SDS011;2828;53.582;9.956;2022-07-23T06:37:35;2.33;;;2.23;;
5612;SDS011;2828;53.582;9.956;2022-07-23T06:40:02;2.57;;;2.37;;
5612;SDS011;2828;53.582;9.956;2022-07-23T06:42:28;3.27;;;2.20;;
5612;SDS011;2828;53.582;9.956;2022-07-23T06:44:54;2.43;;;2.33;;
5612;SDS011;2828;53.582;9.956;2022-07-23T06:47:20;2.80;;;2.40;;
5612;SDS011;2828;53.582;9.956;2022-07-23T06:49:46;3.37;;;2.97;;
5612;SDS011;2828;53.582;9.956;2022-07-23T06:52:12;2.60;;;2.50;;
5612;SDS011;2828;53.582;9.956;2022-07-23T06:54:38;2.90;;;2.50;;
5612;SDS011;2828;53.582;9.956;2022-07-23T06:57:04;2.40;;;2.13;;
5612;SDS011;2828;53.582;9.956;2022-07-23T06:59:30;2.30;;;2.10;;
5612;SDS011;2828;53.582;9.956;2022-07-23T07:01:56;4.50;;;2.27;;
5612;SDS011;2828;53.582;9.956;2022-07-23T07:04:23;5.80;;;2.20;;
5612;SDS011;2828;53.582;9.956;2022-07-23T07:06:49;4.83;;;2.23;;
5612;SDS011;2828;53.582;9.956;2022-07-23T07:09:15;5.57;;;2.50;;
5612;SDS011;2828;53.582;9.956;2022-07-23T07:11:41;1.90;;;1.80;;
5612;SDS011;2828;53.582;9.956;2022-07-23T07:14:07;1.90;;;1.80;;
5612;SDS011;2828;53.582;9.956;2022-07-23T07:16:33;2.13;;;1.90;;
5612;SDS011;2828;53.582;9.956;2022-07-23T07:18:59;6.03;;;1.90;;
5612;SDS011;2828;53.582;9.956;2022-07-23T07:21:25;2.00;;;1.90;;
5612;SDS011;2828;53.582;9.956;2022-07-23T07:23:51;2.00;;;1.90;;
5612;SDS011;2828;53.582;9.956;2022-07-23T07:26:17;1.87;;;1.77;;
5612;SDS011;2828;53.582;9.956;2022-07-23T07:28:43;2.63;;;2.43;;
5612;SDS011;2828;53.582;9.956;2022-07-23T07:31:09;1.93;;;1.83;;
5612;SDS011;2828;53.582;9.956;2022-07-23T07:33:35;2.00;;;1.90;;
5612;SDS011;2828;53.582;9.956;2022-07-23T07:36:01;2.00;;;1.90;;
5612;SDS011;2828;53.582;9.956;2022-07-23T07:38:27;2.00;;;1.90;;
5612;SDS011;2828;53.582;9.956;2022-07-23T07:40:53;1.90;;;1.80;;
5612;SDS011;2828;53.582;9.956;2022-07-23T07:43:19;1.83;;;1.70;;
5612;SDS011;2828;53.582;9.956;2022-07-23T07:45:45;2.30;;;1.90;;
5612;SDS011;2828;53.582;9.956;2022-07-23T07:48:11;2.33;;;2.10;;
5612;SDS011;2828;53.582;9.956;2022-07-23T07:50:37;1.97;;;1.87;;
5612;SDS011;2828;53.582;9.956;2022-07-23T07:53:03;4.77;;;1.70;;
5612;SDS011;2828;53.582;9.956;2022-07-23T07:55:29;2.07;;;1.80;;
5612;SDS011;2828;53.582;9.956;2022-07-23T07:57:56;4.13;;;2.00;;
5612;SDS011;2828;53.582;9.956;2022-07-23T08:00:22;2.10;;;2.00;;
5612;SDS011;2828;53.582;9.956;2022-07-23T08:02:49;1.60;;;1.60;;
5612;SDS011;2828;53.582;9.956;2022-07-23T08:05:18;3.33;;;1.90;;
5612;SDS011;2828;53.582;9.956;2022-07-23T08:07:44;1.83;;;1.73;;
5612;SDS011;2828;53.582;9.956;2022-07-23T08:10:10;1.80;;;1.70;;
5612;SDS011;2828;53.582;9.956;2022-07-23T08:15:10;2.70;;;1.60;;
5612;SDS011;2828;53.582;9.956;2022-07-23T08:17:36;2.00;;;1.90;;
5612;SDS011;2828;53.582;9.956;2022-07-23T08:20:03;2.23;;;1.67;;
5612;SDS011;2828;53.582;9.956;2022-07-23T08:25:14;4.17;;;1.60;;
5612;SDS011;2828;53.582;9.956;2022-07-23T08:27:40;2.00;;;1.90;;
5612;SDS011;2828;53.582;9.956;2022-07-23T08:30:07;1.43;;;1.43;;
5612;SDS011;2828;53.582;9.956;2022-07-23T08:32:33;2.97;;;2.33;;
5612;SDS011;2828;53.582;9.956;2022-07-23T08:34:59;1.77;;;1.60;;
5612;SDS011;2828;53.582;9.956;2022-07-23T08:37:25;2.50;;;2.30;;
5612;SDS011;2828;53.582;9.956;2022-07-23T08:39:51;4.03;;;1.83;;
5612;SDS011;2828;53.582;9.956;2022-07-23T08:42:17;2.40;;;1.80;;
5612;SDS011;2828;53.582;9.956;2022-07-23T08:44:44;1.40;;;1.40;;
5612;SDS011;2828;53.582;9.956;2022-07-23T08:47:11;2.20;;;1.63;;
5612;SDS011;2828;53.582;9.956;2022-07-23T08:49:38;1.63;;;1.40;;
5612;SDS011;2828;53.582;9.956;2022-07-23T08:52:04;1.93;;;1.60;;
5612;SDS011;2828;53.582;9.956;2022-07-23T08:54:31;1.67;;;1.57;;
5612;SDS011;2828;53.582;9.956;2022-07-23T08:56:57;1.67;;;1.60;;
5612;SDS011;2828;53.582;9.956;2022-07-23T08:59:23;1.60;;;1.50;;
5612;SDS011;2828;53.582;9.956;2022-07-23T09:01:49;1.60;;;1.50;;
5612;SDS011;2828;53.582;9.956;2022-07-23T09:04:15;1.60;;;1.50;;
5612;SDS011;2828;53.582;9.956;2022-07-23T09:06:40;4.07;;;1.47;;
5612;SDS011;2828;53.582;9.956;2022-07-23T09:09:20;1.73;;;1.60;;
5612;SDS011;2828;53.582;9.956;2022-07-23T09:11:46;1.77;;;1.67;;
5612;SDS011;2828;53.582;9.956;2022-07-23T09:14:13;2.40;;;1.60;;
5612;SDS011;2828;53.582;9.956;2022-07-23T09:16:39;1.43;;;1.43;;
5612;SDS011;2828;53.582;9.956;2022-07-23T09:19:06;1.83;;;1.43;;
5612;SDS011;2828;53.582;9.956;2022-07-23T09:21:36;2.73;;;1.40;;
5612;SDS011;2828;53.582;9.956;2022-07-23T09:24:08;1.70;;;1.60;;
5612;SDS011;2828;53.582;9.956;2022-07-23T09:26:36;1.60;;;1.50;;
5612;SDS011;2828;53.582;9.956;2022-07-23T09:29:09;1.30;;;1.30;;
5612;SDS011;2828;53.582;9.956;2022-07-23T09:34:26;1.87;;;1.47;;
5612;SDS011;2828;53.582;9.956;2022-07-23T09:37:25;2.47;;;2.27;;
5612;SDS011;2828;53.582;9.956;2022-07-23T09:39:45;1.20;;;1.20;;
5612;SDS011;2828;53.582;9.956;2022-07-23T09:42:19;3.73;;;1.30;;
5612;SDS011;2828;53.582;9.956;2022-07-23T09:44:49;1.30;;;1.30;;
5612;SDS011;2828;53.582;9.956;2022-07-23T09:47:16;1.73;;;1.30;;
5612;SDS011;2828;53.582;9.956;2022-07-23T09:52:28;2.00;;;1.40;;
5612;SDS011;2828;53.582;9.956;2022-07-23T09:54:58;1.87;;;1.60;;
5612;SDS011;2828;53.582;9.956;2022-07-23T09:57:24;3.23;;;1.50;;
5612;SDS011;2828;53.582;9.956;2022-07-23T09:59:51;1.60;;;1.50;;
5612;SDS011;2828;53.582;9.956;2022-07-23T10:02:17;1.87;;;1.47;;
5612;SDS011;2828;53.582;9.956;2022-07-23T10:04:43;1.63;;;1.40;;
5612;SDS011;2828;53.582;9.956;2022-07-23T10:07:10;1.77;;;1.50;;
5612;SDS011;2828;53.582;9.956;2022-07-23T10:09:37;1.47;;;1.30;;
5612;SDS011;2828;53.582;9.956;2022-07-23T10:12:04;1.33;;;1.33;;
5612;SDS011;2828;53.582;9.956;2022-07-23T10:14:33;1.97;;;1.73;;
5612;SDS011;2828;53.582;9.956;2022-07-23T10:17:02;1.37;;;1.37;;
5612;SDS011;2828;53.582;9.956;2022-07-23T10:19:29;2.13;;;1.37;;
5612;SDS011;2828;53.582;9.956;2022-07-23T10:22:14;1.20;;;1.20;;
5612;SDS011;2828;53.582;9.956;2022-07-23T10:24:47;4.70;;;1.20;;
5612;SDS011;2828;53.582;9.956;2022-07-23T10:29:57;1.50;;;1.40;;
5612;SDS011;2828;53.582;9.956;2022-07-23T10:32:26;1.37;;;1.23;;
5612;SDS011;2828;53.582;9.956;2022-07-23T10:34:58;1.33;;;1.10;;
5612;SDS011;2828;53.582;9.956;2022-07-23T10:37:38;2.47;;;1.60;;
5612;SDS011;2828;53.582;9.956;2022-07-23T10:40:09;1.30;;;1.20;;
5612;SDS011;2828;53.582;9.956;2022-07-23T10:42:36;1.70;;;1.60;;
5612;SDS011;2828;53.582;9.956;2022-07-23T10:45:03;1.40;;;1.30;;
5612;SDS011;2828;53.582;9.956;2022-07-23T10:47:47;7.80;;;1.40;;
5612;SDS011;2828;53.582;9.956;2022-07-23T10:52:42;1.13;;;1.13;;
5612;SDS011;2828;53.582;9.956;2022-07-23T10:57:54;1.07;;;1.07;;
5612;SDS011;2828;53.582;9.956;2022-07-23T11:00:27;2.60;;;1.30;;
5612;SDS011;2828;53.582;9.956;2022-07-23T11:02:57;1.47;;;1.23;;
5612;SDS011;2828;53.582;9.956;2022-07-23T11:10:40;1.43;;;1.33;;
5612;SDS011;2828;53.582;9.956;2022-07-23T11:34:50;0.90;;;0.90;;
5612;SDS011;2828;53.582;9.956;2022-07-23T11:37:31;2.70;;;1.10;;
5612;SDS011;2828;53.582;9.956;2022-07-23T11:39:58;9.30;;;1.37;;
5612;SDS011;2828;53.582;9.956;2022-07-23T11:42:25;1.40;;;1.30;;
5612;SDS011;2828;53.582;9.956;2022-07-23T11:44:51;1.47;;;1.37;;
5612;SDS011;2828;53.582;9.956;2022-07-23T11:47:21;4.10;;;1.27;;
5612;SDS011;2828;53.582;9.956;2022-07-23T11:49:54;2.40;;;1.20;;
5612;SDS011;2828;53.582;9.956;2022-07-23T11:52:21;1.70;;;1.30;;
5612;SDS011;2828;53.582;9.956;2022-07-23T11:54:48;2.10;;;1.43;;
5612;SDS011;2828;53.582;9.956;2022-07-23T11:57:14;1.27;;;1.27;;
5612;SDS011;2828;53.582;9.956;2022-07-23T11:59:40;1.53;;;1.43;;
5612;SDS011;2828;53.582;9.956;2022-07-23T12:02:07;2.90;;;1.40;;
5612;SDS011;2828;53.582;9.956;2022-07-23T12:04:52;1.37;;;1.20;;
5612;SDS011;2828;53.582;9.956;2022-07-23T12:09:53;2.90;;;1.53;;
5612;SDS011;2828;53.582;9.956;2022-07-23T12:12:19;1.37;;;1.27;;
5612;SDS011;2828;53.582;9.956;2022-07-23T12:14:49;1.50;;;1.40;;
5612;SDS011;2828;53.582;9.956;2022-07-23T12:17:15;1.43;;;1.30;;
5612;SDS011;2828;53.582;9.956;2022-07-23T12:19:41;1.93;;;1.40;;
5612;SDS011;2828;53.582;9.956;2022-07-23T12:22:08;2.23;;;1.37;;
5612;SDS011;2828;53.582;9.956;2022-07-23T12:27:21;2.37;;;1.80;;
5612;SDS011;2828;53.582;9.956;2022-07-23T12:29:48;8.07;;;1.57;;
5612;SDS011;2828;53.582;9.956;2022-07-23T12:32:18;3.13;;;1.50;;
5612;SDS011;2828;53.582;9.956;2022-07-23T12:34:44;1.97;;;1.27;;
5612;SDS011;2828;53.582;9.956;2022-07-23T12:37:32;3.90;;;2.03;;
5612;SDS011;2828;53.582;9.956;2022-07-23T12:39:58;3.00;;;1.53;;
5612;SDS011;2828;53.582;9.956;2022-07-23T12:42:24;4.53;;;1.60;;
5612;SDS011;2828;53.582;9.956;2022-07-23T12:45:03;1.80;;;1.70;;
5612;SDS011;2828;53.582;9.956;2022-07-23T12:47:29;1.47;;;1.40;;
5612;SDS011;2828;53.582;9.956;2022-07-23T12:49:55;1.33;;;1.20;;
5612;SDS011;2828;53.582;9.956;2022-07-23T12:52:21;3.93;;;1.90;;
5612;SDS011;2828;53.582;9.956;2022-07-23T12:54:47;1.40;;;1.40;;
5612;SDS011;2828;53.582;9.956;2022-07-23T12:57:13;1.47;;;1.43;;
5612;SDS011;2828;53.582;9.956;2022-07-23T12:59:39;3.17;;;1.73;;
5612;SDS011;2828;53.582;9.956;2022-07-23T13:02:08;4.50;;;1.90;;
5612;SDS011;2828;53.582;9.956;2022-07-23T13:04:34;2.80;;;1.40;;
5612;SDS011;2828;53.582;9.956;2022-07-23T13:07:00;3.63;;;1.80;;
5612;SDS011;2828;53.582;9.956;2022-07-23T13:09:27;3.90;;;1.80;;
5612;SDS011;2828;53.582;9.956;2022-07-23T13:11:54;1.30;;;1.30;;
5612;SDS011;2828;53.582;9.956;2022-07-23T13:14:21;2.03;;;1.30;;
5612;SDS011;2828;53.582;9.956;2022-07-23T13:16:50;2.60;;;1.40;;
5612;SDS011;2828;53.582;9.956;2022-07-23T13:19:17;2.60;;;1.93;;
5612;SDS011;2828;53.582;9.956;2022-07-23T13:21:44;2.00;;;1.90;;
5612;SDS011;2828;53.582;9.956;2022-07-23T13:24:10;2.90;;;1.40;;
5612;SDS011;2828;53.582;9.956;2022-07-23T13:26:37;1.60;;;1.50;;
5612;SDS011;2828;53.582;9.956;2022-07-23T13:29:04;1.00;;;1.00;;
5612;SDS011;2828;53.582;9.956;2022-07-23T13:31:30;3.07;;;1.30;;
5612;SDS011;2828;53.582;9.956;2022-07-23T13:33:56;1.27;;;1.07;;
5612;SDS011;2828;53.582;9.956;2022-07-23T13:36:22;2.63;;;1.20;;
5612;SDS011;2828;53.582;9.956;2022-07-23T13:38:48;1.20;;;1.10;;
5612;SDS011;2828;53.582;9.956;2022-07-23T13:41:15;2.83;;;1.43;;
5612;SDS011;2828;53.582;9.956;2022-07-23T13:43:41;1.37;;;1.27;;
5612;SDS011;2828;53.582;9.956;2022-07-23T13:46:07;1.73;;;1.20;;
5612;SDS011;2828;53.582;9.956;2022-07-23T13:48:33;1.30;;;1.20;;
5612;SDS011;2828;53.582;9.956;2022-07-23T13:50:59;3.90;;;1.10;;
5612;SDS011;2828;53.582;9.956;2022-07-23T13:53:25;2.17;;;1.27;;
5612;SDS011;2828;53.582;9.956;2022-07-23T13:55:52;2.10;;;1.10;;
5612;SDS011;2828;53.582;9.956;2022-07-23T13:58:18;1.57;;;1.10;;
5612;SDS011;2828;53.582;9.956;2022-07-23T14:00:48;6.77;;;1.50;;
5612;SDS011;2828;53.582;9.956;2022-07-23T14:03:15;6.10;;;1.37;;
5612;SDS011;2828;53.582;9.956;2022-07-23T14:05:41;2.53;;;1.60;;
5612;SDS011;2828;53.582;9.956;2022-07-23T14:08:07;2.40;;;1.30;;
5612;SDS011;2828;53.582;9.956;2022-07-23T14:10:33;1.30;;;1.20;;
5612;SDS011;2828;53.582;9.956;2022-07-23T14:12:59;1.83;;;1.30;;
5612;SDS011;2828;53.582;9.956;2022-07-23T14:15:26;1.87;;;1.30;;
5612;SDS011;2828;53.582;9.956;2022-07-23T14:17:52;2.00;;;1.30;;
5612;SDS011;2828;53.582;9.956;2022-07-23T14:20:18;1.40;;;1.23;;
5612;SDS011;2828;53.582;9.956;2022-07-23T14:22:44;12.37;;;1.30;;
5612;SDS011;2828;53.582;9.956;2022-07-23T14:25:10;1.60;;;1.50;;
5612;SDS011;2828;53.582;9.956;2022-07-23T14:27:36;1.60;;;1.27;;
5612;SDS011;2828;53.582;9.956;2022-07-23T14:30:03;1.53;;;1.20;;
5612;SDS011;2828;53.582;9.956;2022-07-23T14:32:29;1.70;;;1.60;;
5612;SDS011;2828;53.582;9.956;2022-07-23T14:34:55;3.70;;;1.60;;
5612;SDS011;2828;53.582;9.956;2022-07-23T14:37:21;1.30;;;1.20;;
5612;SDS011;2828;53.582;9.956;2022-07-23T14:39:47;1.50;;;1.43;;
5612;SDS011;2828;53.582;9.956;2022-07-23T14:42:14;1.13;;;1.03;;
5612;SDS011;2828;53.582;9.956;2022-07-23T14:44:40;1.60;;;1.50;;
5612;SDS011;2828;53.582;9.956;2022-07-23T14:47:07;2.70;;;1.80;;
5612;SDS011;2828;53.582;9.956;2022-07-23T14:49:33;4.20;;;1.43;;
5612;SDS011;2828;53.582;9.956;2022-07-23T14:51:59;1.30;;;1.20;;
5612;SDS011;2828;53.582;9.956;2022-07-23T14:54:25;3.80;;;1.67;;
5612;SDS011;2828;53.582;9.956;2022-07-23T14:56:55;2.80;;;1.40;;
5612;SDS011;2828;53.582;9.956;2022-07-23T14:59:22;1.53;;;1.17;;
5612;SDS011;2828;53.582;9.956;2022-07-23T15:01:48;1.40;;;1.30;;
5612;SDS011;2828;53.582;9.956;2022-07-23T15:04:14;1.93;;;1.40;;
5612;SDS011;2828;53.582;9.956;2022-07-23T15:06:41;4.20;;;1.93;;
5612;SDS011;2828;53.582;9.956;2022-07-23T15:09:07;4.37;;;1.20;;
5612;SDS011;2828;53.582;9.956;2022-07-23T15:11:33;1.30;;;1.20;;
5612;SDS011;2828;53.582;9.956;2022-07-23T15:14:01;2.37;;;1.50;;
5612;SDS011;2828;53.582;9.956;2022-07-23T15:16:27;2.70;;;1.60;;
5612;SDS011;2828;53.582;9.956;2022-07-23T15:18:54;3.10;;;1.47;;
5612;SDS011;2828;53.582;9.956;2022-07-23T15:21:20;1.60;;;1.50;;
5612;SDS011;2828;53.582;9.956;2022-07-23T15:23:46;1.63;;;1.53;;
5612;SDS011;2828;53.582;9.956;2022-07-23T15:26:12;1.53;;;1.43;;
5612;SDS011;2828;53.582;9.956;2022-07-23T15:28:39;2.20;;;1.40;;
5612;SDS011;2828;53.582;9.956;2022-07-23T15:31:06;2.07;;;1.30;;
5612;SDS011;2828;53.582;9.956;2022-07-23T15:33:33;2.80;;;2.27;;
5612;SDS011;2828;53.582;9.956;2022-07-23T15:36:00;2.40;;;1.20;;
5612;SDS011;2828;53.582;9.956;2022-07-23T15:38:26;1.57;;;1.40;;
5612;SDS011;2828;53.582;9.956;2022-07-23T15:40:53;1.30;;;1.20;;
5612;SDS011;2828;53.582;9.956;2022-07-23T15:43:19;1.60;;;1.50;;
5612;SDS011;2828;53.582;9.956;2022-07-23T15:45:45;1.60;;;1.50;;
5612;SDS011;2828;53.582;9.956;2022-07-23T15:48:12;1.20;;;1.20;;
5612;SDS011;2828;53.582;9.956;2022-07-23T15:50:38;9.60;;;1.30;;
5612;SDS011;2828;53.582;9.956;2022-07-23T15:53:04;2.00;;;1.83;;
5612;SDS011;2828;53.582;9.956;2022-07-23T15:55:30;1.63;;;1.40;;
5612;SDS011;2828;53.582;9.956;2022-07-23T15:57:56;1.90;;;1.80;;
5612;SDS011;2828;53.582;9.956;2022-07-23T16:00:22;1.40;;;1.30;;
5612;SDS011;2828;53.582;9.956;2022-07-23T16:02:48;1.63;;;1.53;;